sensor_id;sensor_type;location;lat;lon;timestamp;P1;durP1;ratioP1;P2;durP2;ratioP2
77061;SDS011;65989;51.686;5.138;2023-02-04T00:01:28;22.10;;;4.15;;
77061;SDS011;65989;51.686;5.138;2023-02-04T00:03:53;28.20;;;4.53;;
77061;SDS011;65989;51.686;5.138;2023-02-04T00:06:19;24.40;;;4.23;;
77061;SDS011;65989;51.686;5.138;2023-02-04T00:08:44;22.57;;;3.50;;
77061;SDS011;65989;51.686;5.138;2023-02-04T00:11:09;28.60;;;5.13;;
77061;SDS011;65989;51.686;5.138;2023-02-04T00:13:35;25.65;;;4.50;;
77061;SDS011;65989;51.686;5.138;2023-02-04T00:16:00;17.93;;;3.80;;
77061;SDS011;65989;51.686;5.138;2023-02-04T00:18:27;24.10;;;5.17;;
77061;SDS011;65989;51.686;5.138;2023-02-04T00:20:53;30.73;;;7.05;;
77061;SDS011;65989;51.686;5.138;2023-02-04T00:23:18;31.00;;;7.80;;
77061;SDS011;65989;51.686;5.138;2023-02-04T00:25:43;28.57;;;5.77;;
77061;SDS011;65989;51.686;5.138;2023-02-04T00:28:09;29.90;;;4.07;;
77061;SDS011;65989;51.686;5.138;2023-02-04T00:30:34;19.97;;;4.67;;
77061;SDS011;65989;51.686;5.138;2023-02-04T00:33:00;28.73;;;4.70;;
77061;SDS011;65989;51.686;5.138;2023-02-04T00:35:25;24.70;;;4.33;;
77061;SDS011;65989;51.686;5.138;2023-02-04T00:37:51;22.38;;;4.43;;
77061;SDS011;65989;51.686;5.138;2023-02-04T00:40:16;28.27;;;5.70;;
77061;SDS011;65989;51.686;5.138;2023-02-04T00:42:42;30.77;;;7.47;;
77061;SDS011;65989;51.686;5.138;2023-02-04T00:45:08;31.92;;;8.43;;
77061;SDS011;65989;51.686;5.138;2023-02-04T00:47:34;25.53;;;4.40;;
77061;SDS011;65989;51.686;5.138;2023-02-04T00:49:59;32.22;;;7.45;;
77061;SDS011;65989;51.686;5.138;2023-02-04T00:52:25;32.40;;;9.17;;
77061;SDS011;65989;51.686;5.138;2023-02-04T00:54:50;36.27;;;7.70;;
77061;SDS011;65989;51.686;5.138;2023-02-04T00:57:15;23.40;;;4.63;;
77061;SDS011;65989;51.686;5.138;2023-02-04T00:59:41;40.67;;;6.87;;
77061;SDS011;65989;51.686;5.138;2023-02-04T01:02:06;25.70;;;4.37;;
77061;SDS011;65989;51.686;5.138;2023-02-04T01:04:32;38.33;;;5.47;;
77061;SDS011;65989;51.686;5.138;2023-02-04T01:06:57;27.77;;;5.23;;
77061;SDS011;65989;51.686;5.138;2023-02-04T01:09:23;34.33;;;6.90;;
77061;SDS011;65989;51.686;5.138;2023-02-04T01:11:48;25.77;;;4.28;;
77061;SDS011;65989;51.686;5.138;2023-02-04T01:14:14;22.83;;;3.90;;
77061;SDS011;65989;51.686;5.138;2023-02-04T01:16:39;26.00;;;3.50;;
77061;SDS011;65989;51.686;5.138;2023-02-04T01:19:05;18.17;;;3.40;;
77061;SDS011;65989;51.686;5.138;2023-02-04T01:21:30;28.37;;;4.17;;
77061;SDS011;65989;51.686;5.138;2023-02-04T01:23:55;24.10;;;3.87;;
77061;SDS011;65989;51.686;5.138;2023-02-04T01:26:21;27.87;;;4.13;;
77061;SDS011;65989;51.686;5.138;2023-02-04T01:28:46;25.60;;;4.05;;
77061;SDS011;65989;51.686;5.138;2023-02-04T01:31:12;15.40;;;2.97;;
77061;SDS011;65989;51.686;5.138;2023-02-04T01:33:38;24.00;;;3.33;;
77061;SDS011;65989;51.686;5.138;2023-02-04T01:36:03;22.53;;;4.30;;
77061;SDS011;65989;51.686;5.138;2023-02-04T01:38:29;26.20;;;4.37;;
77061;SDS011;65989;51.686;5.138;2023-02-04T01:40:54;21.73;;;3.28;;
77061;SDS011;65989;51.686;5.138;2023-02-04T01:43:20;22.20;;;3.97;;
77061;SDS011;65989;51.686;5.138;2023-02-04T01:45:47;21.23;;;3.40;;
77061;SDS011;65989;51.686;5.138;2023-02-04T01:48:14;29.83;;;3.75;;
77061;SDS011;65989;51.686;5.138;2023-02-04T01:50:51;24.95;;;4.30;;
77061;SDS011;65989;51.686;5.138;2023-02-04T01:53:21;26.02;;;4.28;;
77061;SDS011;65989;51.686;5.138;2023-02-04T01:55:48;22.80;;;3.83;;
77061;SDS011;65989;51.686;5.138;2023-02-04T01:58:14;26.67;;;3.97;;
77061;SDS011;65989;51.686;5.138;2023-02-04T02:00:40;21.33;;;3.13;;
77061;SDS011;65989;51.686;5.138;2023-02-04T02:03:06;30.08;;;4.50;;
77061;SDS011;65989;51.686;5.138;2023-02-04T02:05:37;15.18;;;3.35;;
77061;SDS011;65989;51.686;5.138;2023-02-04T02:08:07;21.90;;;3.80;;
77061;SDS011;65989;51.686;5.138;2023-02-04T02:10:34;20.80;;;3.22;;
77061;SDS011;65989;51.686;5.138;2023-02-04T02:13:02;18.13;;;3.37;;
77061;SDS011;65989;51.686;5.138;2023-02-04T02:15:29;22.00;;;3.85;;
77061;SDS011;65989;51.686;5.138;2023-02-04T02:17:54;20.98;;;3.50;;
77061;SDS011;65989;51.686;5.138;2023-02-04T02:20:21;27.87;;;4.20;;
77061;SDS011;65989;51.686;5.138;2023-02-04T02:22:51;27.40;;;3.47;;
77061;SDS011;65989;51.686;5.138;2023-02-04T02:25:28;21.38;;;3.22;;
77061;SDS011;65989;51.686;5.138;2023-02-04T02:27:54;17.53;;;3.00;;
77061;SDS011;65989;51.686;5.138;2023-02-04T02:30:21;27.10;;;4.35;;
77061;SDS011;65989;51.686;5.138;2023-02-04T02:32:47;20.13;;;3.10;;
77061;SDS011;65989;51.686;5.138;2023-02-04T02:35:15;20.52;;;3.42;;
77061;SDS011;65989;51.686;5.138;2023-02-04T02:37:40;21.63;;;4.40;;
77061;SDS011;65989;51.686;5.138;2023-02-04T02:40:06;19.38;;;3.38;;
77061;SDS011;65989;51.686;5.138;2023-02-04T02:42:32;17.52;;;3.10;;
77061;SDS011;65989;51.686;5.138;2023-02-04T02:44:58;22.33;;;3.63;;
77061;SDS011;65989;51.686;5.138;2023-02-04T02:47:25;18.13;;;3.60;;
77061;SDS011;65989;51.686;5.138;2023-02-04T02:49:52;18.65;;;3.60;;
77061;SDS011;65989;51.686;5.138;2023-02-04T02:52:18;15.93;;;3.03;;
77061;SDS011;65989;51.686;5.138;2023-02-04T02:54:44;17.20;;;2.97;;
77061;SDS011;65989;51.686;5.138;2023-02-04T02:57:13;20.63;;;3.38;;
77061;SDS011;65989;51.686;5.138;2023-02-04T02:59:41;19.58;;;3.35;;
77061;SDS011;65989;51.686;5.138;2023-02-04T03:02:08;21.33;;;3.70;;
77061;SDS011;65989;51.686;5.138;2023-02-04T03:04:39;16.52;;;3.17;;
77061;SDS011;65989;51.686;5.138;2023-02-04T03:07:07;19.40;;;3.90;;
77061;SDS011;65989;51.686;5.138;2023-02-04T03:09:33;21.50;;;3.30;;
77061;SDS011;65989;51.686;5.138;2023-02-04T03:12:00;22.60;;;3.25;;
77061;SDS011;65989;51.686;5.138;2023-02-04T03:14:26;26.33;;;3.57;;
77061;SDS011;65989;51.686;5.138;2023-02-04T03:16:52;18.00;;;3.40;;
77061;SDS011;65989;51.686;5.138;2023-02-04T03:19:19;18.92;;;3.50;;
77061;SDS011;65989;51.686;5.138;2023-02-04T03:21:46;23.08;;;3.65;;
77061;SDS011;65989;51.686;5.138;2023-02-04T03:24:11;20.17;;;3.60;;
77061;SDS011;65989;51.686;5.138;2023-02-04T03:26:37;20.33;;;3.53;;
77061;SDS011;65989;51.686;5.138;2023-02-04T03:29:05;18.00;;;3.33;;
77061;SDS011;65989;51.686;5.138;2023-02-04T03:31:32;17.90;;;3.60;;
77061;SDS011;65989;51.686;5.138;2023-02-04T03:33:57;19.77;;;3.50;;
77061;SDS011;65989;51.686;5.138;2023-02-04T03:36:23;18.80;;;3.63;;
77061;SDS011;65989;51.686;5.138;2023-02-04T03:38:48;19.33;;;3.60;;
77061;SDS011;65989;51.686;5.138;2023-02-04T03:41:16;17.85;;;3.28;;
77061;SDS011;65989;51.686;5.138;2023-02-04T03:43:41;18.63;;;3.83;;
77061;SDS011;65989;51.686;5.138;2023-02-04T03:46:07;13.93;;;3.50;;
77061;SDS011;65989;51.686;5.138;2023-02-04T03:48:32;20.13;;;3.97;;
77061;SDS011;65989;51.686;5.138;2023-02-04T03:50:57;20.13;;;3.60;;
77061;SDS011;65989;51.686;5.138;2023-02-04T03:53:23;20.13;;;3.13;;
77061;SDS011;65989;51.686;5.138;2023-02-04T03:55:48;17.10;;;3.40;;
77061;SDS011;65989;51.686;5.138;2023-02-04T03:58:14;15.93;;;3.43;;
77061;SDS011;65989;51.686;5.138;2023-02-04T04:00:39;15.88;;;3.03;;
77061;SDS011;65989;51.686;5.138;2023-02-04T04:03:04;14.47;;;3.10;;
77061;SDS011;65989;51.686;5.138;2023-02-04T04:05:30;19.60;;;3.70;;
77061;SDS011;65989;51.686;5.138;2023-02-04T04:07:56;14.40;;;3.35;;
77061;SDS011;65989;51.686;5.138;2023-02-04T04:10:22;19.27;;;3.50;;
77061;SDS011;65989;51.686;5.138;2023-02-04T04:12:47;16.50;;;3.27;;
77061;SDS011;65989;51.686;5.138;2023-02-04T04:15:12;15.10;;;3.17;;
77061;SDS011;65989;51.686;5.138;2023-02-04T04:17:38;15.02;;;3.35;;
77061;SDS011;65989;51.686;5.138;2023-02-04T04:20:03;16.47;;;4.17;;
77061;SDS011;65989;51.686;5.138;2023-02-04T04:22:29;19.45;;;4.07;;
77061;SDS011;65989;51.686;5.138;2023-02-04T04:24:55;14.87;;;3.37;;
77061;SDS011;65989;51.686;5.138;2023-02-04T04:27:20;18.60;;;3.57;;
77061;SDS011;65989;51.686;5.138;2023-02-04T04:29:45;17.43;;;3.47;;
77061;SDS011;65989;51.686;5.138;2023-02-04T04:32:11;17.00;;;3.87;;
77061;SDS011;65989;51.686;5.138;2023-02-04T04:34:36;23.63;;;3.77;;
77061;SDS011;65989;51.686;5.138;2023-02-04T04:37:01;20.90;;;4.20;;
77061;SDS011;65989;51.686;5.138;2023-02-04T04:39:27;21.63;;;4.57;;
77061;SDS011;65989;51.686;5.138;2023-02-04T04:41:52;24.37;;;4.33;;
77061;SDS011;65989;51.686;5.138;2023-02-04T04:44:17;17.23;;;3.17;;
77061;SDS011;65989;51.686;5.138;2023-02-04T04:46:43;18.27;;;3.77;;
77061;SDS011;65989;51.686;5.138;2023-02-04T04:49:08;21.10;;;3.87;;
77061;SDS011;65989;51.686;5.138;2023-02-04T04:51:34;15.13;;;3.83;;
77061;SDS011;65989;51.686;5.138;2023-02-04T04:53:59;35.67;;;5.97;;
77061;SDS011;65989;51.686;5.138;2023-02-04T04:56:24;28.83;;;5.80;;
77061;SDS011;65989;51.686;5.138;2023-02-04T04:58:50;38.77;;;6.93;;
77061;SDS011;65989;51.686;5.138;2023-02-04T05:01:16;39.92;;;7.57;;
77061;SDS011;65989;51.686;5.138;2023-02-04T05:03:41;43.33;;;8.20;;
77061;SDS011;65989;51.686;5.138;2023-02-04T05:06:06;45.37;;;7.13;;
77061;SDS011;65989;51.686;5.138;2023-02-04T05:08:33;46.83;;;8.82;;
77061;SDS011;65989;51.686;5.138;2023-02-04T05:11:00;43.90;;;8.93;;
77061;SDS011;65989;51.686;5.138;2023-02-04T05:13:26;46.00;;;9.40;;
77061;SDS011;65989;51.686;5.138;2023-02-04T05:15:51;43.07;;;8.90;;
77061;SDS011;65989;51.686;5.138;2023-02-04T05:18:17;42.40;;;8.67;;
77061;SDS011;65989;51.686;5.138;2023-02-04T05:20:42;38.37;;;8.90;;
77061;SDS011;65989;51.686;5.138;2023-02-04T05:23:07;42.08;;;8.93;;
77061;SDS011;65989;51.686;5.138;2023-02-04T05:25:33;43.40;;;8.90;;
77061;SDS011;65989;51.686;5.138;2023-02-04T05:27:58;46.97;;;8.97;;
77061;SDS011;65989;51.686;5.138;2023-02-04T05:30:23;41.00;;;8.90;;
77061;SDS011;65989;51.686;5.138;2023-02-04T05:32:49;35.80;;;9.20;;
77061;SDS011;65989;51.686;5.138;2023-02-04T05:35:14;43.95;;;10.55;;
77061;SDS011;65989;51.686;5.138;2023-02-04T05:37:40;48.23;;;9.70;;
77061;SDS011;65989;51.686;5.138;2023-02-04T05:40:05;44.20;;;10.70;;
77061;SDS011;65989;51.686;5.138;2023-02-04T05:42:31;37.88;;;9.20;;
77061;SDS011;65989;51.686;5.138;2023-02-04T05:44:57;47.70;;;9.23;;
77061;SDS011;65989;51.686;5.138;2023-02-04T05:47:22;36.60;;;9.53;;
77061;SDS011;65989;51.686;5.138;2023-02-04T05:49:48;49.50;;;11.27;;
77061;SDS011;65989;51.686;5.138;2023-02-04T05:52:13;43.30;;;9.70;;
77061;SDS011;65989;51.686;5.138;2023-02-04T05:54:39;41.40;;;10.57;;
77061;SDS011;65989;51.686;5.138;2023-02-04T05:57:04;46.17;;;8.73;;
77061;SDS011;65989;51.686;5.138;2023-02-04T05:59:29;30.37;;;8.77;;
77061;SDS011;65989;51.686;5.138;2023-02-04T06:01:55;40.27;;;10.13;;
77061;SDS011;65989;51.686;5.138;2023-02-04T06:04:20;41.03;;;9.80;;
77061;SDS011;65989;51.686;5.138;2023-02-04T06:06:46;34.90;;;9.35;;
77061;SDS011;65989;51.686;5.138;2023-02-04T06:09:11;39.10;;;9.77;;
77061;SDS011;65989;51.686;5.138;2023-02-04T06:11:37;40.23;;;9.43;;
77061;SDS011;65989;51.686;5.138;2023-02-04T06:14:02;44.87;;;9.83;;
77061;SDS011;65989;51.686;5.138;2023-02-04T06:16:28;46.30;;;9.57;;
77061;SDS011;65989;51.686;5.138;2023-02-04T06:18:53;40.37;;;8.70;;
77061;SDS011;65989;51.686;5.138;2023-02-04T06:21:19;37.90;;;9.47;;
77061;SDS011;65989;51.686;5.138;2023-02-04T06:23:44;44.60;;;9.68;;
77061;SDS011;65989;51.686;5.138;2023-02-04T06:26:10;34.70;;;8.47;;
77061;SDS011;65989;51.686;5.138;2023-02-04T06:28:35;38.15;;;8.82;;
77061;SDS011;65989;51.686;5.138;2023-02-04T06:31:01;38.87;;;8.80;;
77061;SDS011;65989;51.686;5.138;2023-02-04T06:33:27;34.20;;;9.00;;
77061;SDS011;65989;51.686;5.138;2023-02-04T06:35:52;34.92;;;8.38;;
77061;SDS011;65989;51.686;5.138;2023-02-04T06:38:18;41.80;;;8.30;;
77061;SDS011;65989;51.686;5.138;2023-02-04T06:40:43;40.50;;;8.50;;
77061;SDS011;65989;51.686;5.138;2023-02-04T06:43:13;35.85;;;8.32;;
77061;SDS011;65989;51.686;5.138;2023-02-04T06:45:39;31.25;;;8.70;;
77061;SDS011;65989;51.686;5.138;2023-02-04T06:48:04;44.57;;;8.33;;
77061;SDS011;65989;51.686;5.138;2023-02-04T06:50:29;39.20;;;7.30;;
77061;SDS011;65989;51.686;5.138;2023-02-04T06:52:55;39.60;;;8.77;;
77061;SDS011;65989;51.686;5.138;2023-02-04T06:55:20;33.78;;;8.18;;
77061;SDS011;65989;51.686;5.138;2023-02-04T06:57:45;31.67;;;8.40;;
77061;SDS011;65989;51.686;5.138;2023-02-04T07:00:11;37.60;;;9.80;;
77061;SDS011;65989;51.686;5.138;2023-02-04T07:02:37;36.42;;;9.10;;
77061;SDS011;65989;51.686;5.138;2023-02-04T07:05:03;35.05;;;9.38;;
77061;SDS011;65989;51.686;5.138;2023-02-04T07:07:29;28.13;;;8.20;;
77061;SDS011;65989;51.686;5.138;2023-02-04T07:09:55;32.63;;;8.43;;
77061;SDS011;65989;51.686;5.138;2023-02-04T07:12:20;30.23;;;9.07;;
77061;SDS011;65989;51.686;5.138;2023-02-04T07:14:45;35.50;;;8.30;;
77061;SDS011;65989;51.686;5.138;2023-02-04T07:17:11;34.73;;;8.93;;
77061;SDS011;65989;51.686;5.138;2023-02-04T07:19:36;31.47;;;8.33;;
77061;SDS011;65989;51.686;5.138;2023-02-04T07:22:02;31.75;;;8.15;;
77061;SDS011;65989;51.686;5.138;2023-02-04T07:24:28;36.60;;;10.32;;
77061;SDS011;65989;51.686;5.138;2023-02-04T07:26:54;24.07;;;8.57;;
77061;SDS011;65989;51.686;5.138;2023-02-04T07:29:19;33.33;;;8.75;;
77061;SDS011;65989;51.686;5.138;2023-02-04T07:31:45;31.53;;;9.20;;
77061;SDS011;65989;51.686;5.138;2023-02-04T07:34:14;30.30;;;9.80;;
77061;SDS011;65989;51.686;5.138;2023-02-04T07:36:40;35.45;;;10.65;;
77061;SDS011;65989;51.686;5.138;2023-02-04T07:39:05;35.43;;;11.23;;
77061;SDS011;65989;51.686;5.138;2023-02-04T07:41:31;39.72;;;11.43;;
77061;SDS011;65989;51.686;5.138;2023-02-04T07:43:57;40.53;;;11.43;;
77061;SDS011;65989;51.686;5.138;2023-02-04T07:46:22;43.80;;;11.07;;
77061;SDS011;65989;51.686;5.138;2023-02-04T07:48:48;42.37;;;11.97;;
77061;SDS011;65989;51.686;5.138;2023-02-04T07:51:15;41.47;;;11.32;;
77061;SDS011;65989;51.686;5.138;2023-02-04T07:53:41;33.53;;;11.47;;
77061;SDS011;65989;51.686;5.138;2023-02-04T07:56:06;33.00;;;11.50;;
77061;SDS011;65989;51.686;5.138;2023-02-04T07:58:32;36.67;;;11.93;;
77061;SDS011;65989;51.686;5.138;2023-02-04T08:00:57;39.57;;;12.83;;
77061;SDS011;65989;51.686;5.138;2023-02-04T08:03:22;42.10;;;12.57;;
77061;SDS011;65989;51.686;5.138;2023-02-04T08:05:48;39.53;;;12.17;;
77061;SDS011;65989;51.686;5.138;2023-02-04T08:08:13;48.40;;;12.33;;
77061;SDS011;65989;51.686;5.138;2023-02-04T08:10:39;37.90;;;12.10;;
77061;SDS011;65989;51.686;5.138;2023-02-04T08:13:05;45.23;;;13.80;;
77061;SDS011;65989;51.686;5.138;2023-02-04T08:15:30;43.88;;;13.43;;
77061;SDS011;65989;51.686;5.138;2023-02-04T08:17:56;42.47;;;13.50;;
77061;SDS011;65989;51.686;5.138;2023-02-04T08:20:22;41.95;;;13.55;;
77061;SDS011;65989;51.686;5.138;2023-02-04T08:22:47;42.37;;;13.33;;
77061;SDS011;65989;51.686;5.138;2023-02-04T08:25:13;37.10;;;13.57;;
77061;SDS011;65989;51.686;5.138;2023-02-04T08:27:38;40.13;;;14.05;;
77061;SDS011;65989;51.686;5.138;2023-02-04T08:30:04;43.83;;;14.63;;
77061;SDS011;65989;51.686;5.138;2023-02-04T08:32:30;45.63;;;14.45;;
77061;SDS011;65989;51.686;5.138;2023-02-04T08:34:56;38.50;;;13.37;;
77061;SDS011;65989;51.686;5.138;2023-02-04T08:37:22;48.33;;;14.98;;
77061;SDS011;65989;51.686;5.138;2023-02-04T08:39:47;45.27;;;14.73;;
77061;SDS011;65989;51.686;5.138;2023-02-04T08:42:13;49.35;;;14.27;;
77061;SDS011;65989;51.686;5.138;2023-02-04T08:44:39;42.37;;;14.83;;
77061;SDS011;65989;51.686;5.138;2023-02-04T08:47:05;48.65;;;15.70;;
77061;SDS011;65989;51.686;5.138;2023-02-04T08:49:31;38.93;;;14.60;;
77061;SDS011;65989;51.686;5.138;2023-02-04T08:51:56;49.50;;;15.35;;
77061;SDS011;65989;51.686;5.138;2023-02-04T08:54:21;36.80;;;14.67;;
77061;SDS011;65989;51.686;5.138;2023-02-04T08:56:47;38.30;;;15.47;;
77061;SDS011;65989;51.686;5.138;2023-02-04T08:59:12;47.60;;;16.53;;
77061;SDS011;65989;51.686;5.138;2023-02-04T09:01:38;46.85;;;15.57;;
77061;SDS011;65989;51.686;5.138;2023-02-04T09:04:03;45.70;;;13.83;;
77061;SDS011;65989;51.686;5.138;2023-02-04T09:06:28;42.47;;;14.20;;
77061;SDS011;65989;51.686;5.138;2023-02-04T09:08:54;44.33;;;15.63;;
77061;SDS011;65989;51.686;5.138;2023-02-04T09:11:19;41.60;;;14.93;;
77061;SDS011;65989;51.686;5.138;2023-02-04T09:13:45;40.53;;;14.02;;
77061;SDS011;65989;51.686;5.138;2023-02-04T09:16:10;43.57;;;14.53;;
77061;SDS011;65989;51.686;5.138;2023-02-04T09:18:36;38.70;;;12.97;;
77061;SDS011;65989;51.686;5.138;2023-02-04T09:21:01;40.22;;;12.95;;
77061;SDS011;65989;51.686;5.138;2023-02-04T09:23:27;39.37;;;13.03;;
77061;SDS011;65989;51.686;5.138;2023-02-04T09:25:52;35.83;;;12.33;;
77061;SDS011;65989;51.686;5.138;2023-02-04T09:28:18;41.13;;;10.63;;
77061;SDS011;65989;51.686;5.138;2023-02-04T09:30:44;38.30;;;11.40;;
77061;SDS011;65989;51.686;5.138;2023-02-04T09:33:11;31.97;;;10.07;;
77061;SDS011;65989;51.686;5.138;2023-02-04T09:35:38;31.58;;;9.10;;
77061;SDS011;65989;51.686;5.138;2023-02-04T09:38:03;34.22;;;9.02;;
77061;SDS011;65989;51.686;5.138;2023-02-04T09:40:30;39.17;;;9.83;;
77061;SDS011;65989;51.686;5.138;2023-02-04T09:42:58;34.92;;;8.82;;
77061;SDS011;65989;51.686;5.138;2023-02-04T09:45:25;32.23;;;9.30;;
77061;SDS011;65989;51.686;5.138;2023-02-04T09:47:54;29.90;;;10.85;;
77061;SDS011;65989;51.686;5.138;2023-02-04T09:50:22;38.75;;;10.70;;
77061;SDS011;65989;51.686;5.138;2023-02-04T09:52:51;29.25;;;8.45;;
77061;SDS011;65989;51.686;5.138;2023-02-04T09:55:20;31.23;;;7.88;;
77061;SDS011;65989;51.686;5.138;2023-02-04T09:57:49;32.43;;;8.10;;
77061;SDS011;65989;51.686;5.138;2023-02-04T10:00:16;38.85;;;8.15;;
77061;SDS011;65989;51.686;5.138;2023-02-04T10:02:42;32.90;;;8.50;;
77061;SDS011;65989;51.686;5.138;2023-02-04T10:05:14;31.52;;;6.55;;
77061;SDS011;65989;51.686;5.138;2023-02-04T10:07:48;30.27;;;5.00;;
77061;SDS011;65989;51.686;5.138;2023-02-04T10:10:21;28.35;;;5.22;;
77061;SDS011;65989;51.686;5.138;2023-02-04T10:12:50;28.80;;;6.03;;
77061;SDS011;65989;51.686;5.138;2023-02-04T10:15:18;26.80;;;5.75;;
77061;SDS011;65989;51.686;5.138;2023-02-04T10:17:48;32.97;;;5.47;;
77061;SDS011;65989;51.686;5.138;2023-02-04T10:20:18;34.45;;;5.65;;
77061;SDS011;65989;51.686;5.138;2023-02-04T10:22:48;27.48;;;4.97;;
77061;SDS011;65989;51.686;5.138;2023-02-04T10:25:17;33.73;;;5.90;;
77061;SDS011;65989;51.686;5.138;2023-02-04T10:30:39;27.77;;;5.82;;
77061;SDS011;65989;51.686;5.138;2023-02-04T10:33:22;34.22;;;4.97;;
77061;SDS011;65989;51.686;5.138;2023-02-04T10:35:51;27.67;;;5.05;;
77061;SDS011;65989;51.686;5.138;2023-02-04T10:38:19;26.30;;;5.30;;
77061;SDS011;65989;51.686;5.138;2023-02-04T10:40:45;27.00;;;4.93;;
77061;SDS011;65989;51.686;5.138;2023-02-04T10:43:15;36.03;;;6.30;;
77061;SDS011;65989;51.686;5.138;2023-02-04T10:45:43;27.83;;;5.03;;
77061;SDS011;65989;51.686;5.138;2023-02-04T10:48:17;30.77;;;5.88;;
77061;SDS011;65989;51.686;5.138;2023-02-04T10:50:44;32.93;;;6.93;;
77061;SDS011;65989;51.686;5.138;2023-02-04T10:53:11;29.63;;;5.35;;
77061;SDS011;65989;51.686;5.138;2023-02-04T10:55:59;28.52;;;6.28;;
77061;SDS011;65989;51.686;5.138;2023-02-04T10:58:26;30.67;;;5.72;;
77061;SDS011;65989;51.686;5.138;2023-02-04T11:00:53;32.55;;;6.47;;
77061;SDS011;65989;51.686;5.138;2023-02-04T11:03:23;38.67;;;6.77;;
77061;SDS011;65989;51.686;5.138;2023-02-04T11:05:50;31.63;;;5.95;;
77061;SDS011;65989;51.686;5.138;2023-02-04T11:08:21;26.40;;;5.33;;
77061;SDS011;65989;51.686;5.138;2023-02-04T11:10:57;25.23;;;4.68;;
77061;SDS011;65989;51.686;5.138;2023-02-04T11:13:25;30.38;;;4.70;;
77061;SDS011;65989;51.686;5.138;2023-02-04T11:21:53;18.42;;;3.60;;
77061;SDS011;65989;51.686;5.138;2023-02-04T11:26:44;27.70;;;4.32;;
77061;SDS011;65989;51.686;5.138;2023-02-04T11:29:30;24.73;;;4.17;;
77061;SDS011;65989;51.686;5.138;2023-02-04T11:34:42;26.33;;;5.13;;
77061;SDS011;65989;51.686;5.138;2023-02-04T11:37:16;32.88;;;5.53;;
77061;SDS011;65989;51.686;5.138;2023-02-04T11:39:52;27.52;;;4.60;;
77061;SDS011;65989;51.686;5.138;2023-02-04T11:42:22;29.20;;;5.47;;
77061;SDS011;65989;51.686;5.138;2023-02-04T11:44:58;32.83;;;5.05;;
77061;SDS011;65989;51.686;5.138;2023-02-04T11:47:25;27.77;;;4.65;;
77061;SDS011;65989;51.686;5.138;2023-02-04T11:49:53;34.03;;;5.10;;
77061;SDS011;65989;51.686;5.138;2023-02-04T11:52:23;25.67;;;5.30;;
77061;SDS011;65989;51.686;5.138;2023-02-04T11:54:56;30.10;;;5.55;;
77061;SDS011;65989;51.686;5.138;2023-02-04T11:57:23;33.57;;;5.33;;
77061;SDS011;65989;51.686;5.138;2023-02-04T11:59:49;19.30;;;4.90;;
77061;SDS011;65989;51.686;5.138;2023-02-04T12:02:15;26.03;;;4.90;;
77061;SDS011;65989;51.686;5.138;2023-02-04T12:05:17;23.23;;;5.40;;
77061;SDS011;65989;51.686;5.138;2023-02-04T12:07:42;29.63;;;5.53;;
77061;SDS011;65989;51.686;5.138;2023-02-04T12:10:32;23.95;;;4.85;;
77061;SDS011;65989;51.686;5.138;2023-02-04T12:12:57;29.88;;;5.78;;
77061;SDS011;65989;51.686;5.138;2023-02-04T12:15:30;25.37;;;5.17;;
77061;SDS011;65989;51.686;5.138;2023-02-04T12:18:00;21.10;;;5.20;;
77061;SDS011;65989;51.686;5.138;2023-02-04T12:20:27;30.50;;;5.70;;
77061;SDS011;65989;51.686;5.138;2023-02-04T12:22:52;32.43;;;5.60;;
77061;SDS011;65989;51.686;5.138;2023-02-04T12:25:18;26.52;;;5.50;;
77061;SDS011;65989;51.686;5.138;2023-02-04T12:27:44;21.07;;;5.13;;
77061;SDS011;65989;51.686;5.138;2023-02-04T12:30:10;24.17;;;5.90;;
77061;SDS011;65989;51.686;5.138;2023-02-04T12:32:36;23.67;;;5.05;;
77061;SDS011;65989;51.686;5.138;2023-02-04T12:35:01;29.43;;;5.37;;
77061;SDS011;65989;51.686;5.138;2023-02-04T12:37:27;37.97;;;6.17;;
77061;SDS011;65989;51.686;5.138;2023-02-04T12:39:52;30.73;;;6.50;;
77061;SDS011;65989;51.686;5.138;2023-02-04T12:42:18;30.77;;;5.30;;
77061;SDS011;65989;51.686;5.138;2023-02-04T12:44:43;21.57;;;5.57;;
77061;SDS011;65989;51.686;5.138;2023-02-04T12:47:08;23.67;;;5.47;;
77061;SDS011;65989;51.686;5.138;2023-02-04T12:49:34;27.33;;;5.33;;
77061;SDS011;65989;51.686;5.138;2023-02-04T12:51:59;29.30;;;5.63;;
77061;SDS011;65989;51.686;5.138;2023-02-04T12:54:26;21.57;;;5.40;;
77061;SDS011;65989;51.686;5.138;2023-02-04T12:56:51;29.33;;;5.32;;
77061;SDS011;65989;51.686;5.138;2023-02-04T12:59:17;27.77;;;5.50;;
77061;SDS011;65989;51.686;5.138;2023-02-04T13:01:43;24.02;;;4.78;;
77061;SDS011;65989;51.686;5.138;2023-02-04T13:04:08;23.00;;;4.90;;
77061;SDS011;65989;51.686;5.138;2023-02-04T13:06:33;24.23;;;5.20;;
77061;SDS011;65989;51.686;5.138;2023-02-04T13:08:59;25.92;;;4.80;;
77061;SDS011;65989;51.686;5.138;2023-02-04T13:11:24;25.60;;;5.40;;
77061;SDS011;65989;51.686;5.138;2023-02-04T13:13:50;24.30;;;4.63;;
77061;SDS011;65989;51.686;5.138;2023-02-04T13:16:15;23.10;;;4.40;;
77061;SDS011;65989;51.686;5.138;2023-02-04T13:18:43;22.90;;;4.82;;
77061;SDS011;65989;51.686;5.138;2023-02-04T13:21:08;19.83;;;3.13;;
77061;SDS011;65989;51.686;5.138;2023-02-04T13:23:34;18.65;;;3.70;;
77061;SDS011;65989;51.686;5.138;2023-02-04T13:26:00;23.47;;;3.60;;
77061;SDS011;65989;51.686;5.138;2023-02-04T13:28:25;21.67;;;3.58;;
77061;SDS011;65989;51.686;5.138;2023-02-04T13:30:51;21.50;;;3.20;;
77061;SDS011;65989;51.686;5.138;2023-02-04T13:33:16;22.80;;;3.23;;
77061;SDS011;65989;51.686;5.138;2023-02-04T13:35:42;16.33;;;3.10;;
77061;SDS011;65989;51.686;5.138;2023-02-04T13:38:09;19.90;;;3.83;;
77061;SDS011;65989;51.686;5.138;2023-02-04T13:40:34;16.70;;;3.03;;
77061;SDS011;65989;51.686;5.138;2023-02-04T13:43:00;23.77;;;3.20;;
77061;SDS011;65989;51.686;5.138;2023-02-04T13:45:25;19.00;;;3.70;;
77061;SDS011;65989;51.686;5.138;2023-02-04T13:47:50;22.80;;;4.03;;
77061;SDS011;65989;51.686;5.138;2023-02-04T13:50:16;25.77;;;7.23;;
77061;SDS011;65989;51.686;5.138;2023-02-04T13:52:42;22.95;;;5.82;;
77061;SDS011;65989;51.686;5.138;2023-02-04T13:55:07;19.60;;;3.23;;
77061;SDS011;65989;51.686;5.138;2023-02-04T13:57:33;17.67;;;2.97;;
77061;SDS011;65989;51.686;5.138;2023-02-04T13:59:58;19.80;;;2.93;;
77061;SDS011;65989;51.686;5.138;2023-02-04T14:02:24;24.90;;;3.80;;
77061;SDS011;65989;51.686;5.138;2023-02-04T14:04:49;20.87;;;3.70;;
77061;SDS011;65989;51.686;5.138;2023-02-04T14:07:15;16.50;;;2.83;;
77061;SDS011;65989;51.686;5.138;2023-02-04T14:09:41;18.25;;;3.60;;
77061;SDS011;65989;51.686;5.138;2023-02-04T14:12:06;17.90;;;3.67;;
77061;SDS011;65989;51.686;5.138;2023-02-04T14:14:31;19.23;;;3.10;;
77061;SDS011;65989;51.686;5.138;2023-02-04T14:16:57;22.43;;;3.57;;
77061;SDS011;65989;51.686;5.138;2023-02-04T14:19:22;19.63;;;3.23;;
77061;SDS011;65989;51.686;5.138;2023-02-04T14:21:51;18.13;;;3.10;;
77061;SDS011;65989;51.686;5.138;2023-02-04T14:24:18;24.40;;;4.13;;
77061;SDS011;65989;51.686;5.138;2023-02-04T14:26:44;25.63;;;5.85;;
77061;SDS011;65989;51.686;5.138;2023-02-04T14:29:10;19.42;;;4.00;;
77061;SDS011;65989;51.686;5.138;2023-02-04T14:31:35;23.33;;;4.07;;
77061;SDS011;65989;51.686;5.138;2023-02-04T14:34:01;27.40;;;3.40;;
77061;SDS011;65989;51.686;5.138;2023-02-04T14:36:26;20.90;;;3.60;;
77061;SDS011;65989;51.686;5.138;2023-02-04T14:38:52;23.93;;;3.73;;
77061;SDS011;65989;51.686;5.138;2023-02-04T14:41:17;17.97;;;3.33;;
77061;SDS011;65989;51.686;5.138;2023-02-04T14:43:45;20.67;;;3.13;;